Time;durP1;ratioP1;P1;durP2;ratioP2;P2;SDS_P1;SDS_P2;PMS_P1;PMS_P2;Temp;Humidity;BMP_temperature;BMP_pressure;BME280_temperature;BME280_humidity;BME280_pressure;Samples;Min_cycle;Max_cycle;Signal;HPM_P1;HPM_P2
2022/09/04 00:02:01;;;;;;;2.67;0.40;;;15.50;91.20;;;;;;6215645;23;20078;-84
2022/09/04 00:04:37;;;;;;;0.47;0.30;;;15.40;91.30;;;;;;6215577;23;20020;-85
2022/09/04 00:07:21;;;;;;;0.47;0.32;;;15.40;91.40;;;;;;6189292;23;20096;-85
2022/09/04 00:10:02;;;;;;;0.88;0.40;;;15.40;91.40;;;;;;6214968;23;20020;-85
2022/09/04 00:12:37;;;;;;;0.50;0.40;;;15.30;91.40;;;;;;6188722;23;20020;-85
2022/09/04 00:15:16;;;;;;;0.82;0.40;;;15.30;91.60;;;;;;6214797;23;20067;-85
2022/09/04 00:17:44;;;;;;;0.50;0.30;;;15.20;91.70;;;;;;6188180;23;20023;-85
2022/09/04 00:20:16;;;;;;;1.00;0.50;;;15.20;91.80;;;;;;6163432;23;20524;-84
2022/09/04 00:22:52;;;;;;;0.50;0.35;;;15.20;91.90;;;;;;6188778;23;20052;-84
2022/09/04 00:25:43;;;;;;;2.15;0.38;;;15.20;91.90;;;;;;6188451;23;20021;-85
2022/09/04 00:28:27;;;;;;;0.40;0.30;;;15.10;92.00;;;;;;6214764;23;20055;-84
2022/09/04 00:31:12;;;;;;;1.17;0.40;;;15.10;92.00;;;;;;6188313;23;20048;-85
2022/09/04 00:33:52;;;;;;;0.50;0.40;;;15.00;92.10;;;;;;6188173;23;20453;-84
2022/09/04 00:36:23;;;;;;;1.52;0.50;;;15.00;92.10;;;;;;6188120;23;20106;-85
2022/09/04 00:38:59;;;;;;;0.60;0.40;;;15.00;92.20;;;;;;6214848;23;20024;-84
2022/09/04 00:41:41;;;;;;;0.60;0.50;;;14.90;92.20;;;;;;6214947;23;20016;-85
2022/09/04 00:44:17;;;;;;;0.40;0.30;;;14.90;92.30;;;;;;6214148;23;20020;-84
2022/09/04 00:46:56;;;;;;;0.45;0.32;;;14.80;92.40;;;;;;6214618;23;20390;-85
2022/09/04 00:49:49;;;;;;;0.50;0.40;;;14.80;92.50;;;;;;6187963;23;20024;-85
2022/09/04 00:52:46;;;;;;;0.60;0.35;;;14.80;92.60;;;;;;6215052;23;20024;-84
2022/09/04 00:56:11;;;;;;;0.75;0.40;;;14.50;92.50;;;;;;6214730;23;20017;-84
2022/09/04 00:59:05;;;;;;;0.70;0.50;;;14.60;92.80;;;;;;6188141;23;20052;-85
2022/09/04 01:01:31;;;;;;;0.95;0.40;;;14.60;93.00;;;;;;6214776;23;20056;-86
2022/09/04 01:04:20;;;;;;;0.45;0.30;;;14.90;93.20;;;;;;6188644;23;20031;-85
2022/09/04 01:07:02;;;;;;;0.50;0.40;;;14.50;93.00;;;;;;6187971;23;20024;-85
2022/09/04 01:09:34;;;;;;;0.47;0.40;;;14.50;93.30;;;;;;6188177;23;20132;-84
2022/09/04 01:12:25;;;;;;;1.05;0.50;;;14.40;93.30;;;;;;6214736;23;20017;-85
2022/09/04 01:15:30;;;;;;;1.60;0.60;;;14.40;93.30;;;;;;6188013;23;20024;-85
2022/09/04 01:18:05;;;;;;;2.15;0.40;;;14.40;93.50;;;;;;6186963;23;20144;-85
2022/09/04 01:20:59;;;;;;;0.85;0.65;;;14.50;93.70;;;;;;6187898;23;20431;-86
2022/09/04 01:23:48;;;;;;;0.55;0.43;;;14.30;93.70;;;;;;6215110;23;20012;-85
2022/09/04 01:26:39;;;;;;;0.82;0.50;;;14.30;93.80;;;;;;6188315;23;20447;-86
2022/09/04 01:29:42;;;;;;;0.68;0.40;;;14.20;93.90;;;;;;6215226;23;20060;-85
2022/09/04 01:32:14;;;;;;;2.30;0.63;;;14.20;94.00;;;;;;6188595;23;20018;-85
2022/09/04 01:34:58;;;;;;;1.00;0.40;;;14.20;94.20;;;;;;6188172;23;20021;-85
2022/09/04 01:37:47;;;;;;;0.60;0.40;;;14.10;94.20;;;;;;6187970;23;20016;-84
2022/09/04 01:40:33;;;;;;;0.57;0.30;;;14.10;94.30;;;;;;6188117;23;20039;-84
2022/09/04 01:43:12;;;;;;;0.65;0.35;;;13.60;94.30;;;;;;6188286;23;20028;-85
2022/09/04 01:45:56;;;;;;;0.70;0.50;;;14.00;94.50;;;;;;6214118;23;20363;-84
2022/09/04 01:48:49;;;;;;;0.75;0.35;;;14.00;94.40;;;;;;6214617;23;20024;-85
2022/09/04 01:51:32;;;;;;;0.82;0.50;;;14.00;94.60;;;;;;6094850;23;20101;-85
2022/09/04 01:54:34;;;;;;;0.88;0.47;;;14.00;94.90;;;;;;6095408;23;20015;-84
2022/09/04 01:57:13;;;;;;;0.93;0.30;;;14.00;94.90;;;;;;6095235;23;20018;-84
2022/09/04 02:00:21;;;;;;;0.57;0.40;;;13.90;94.90;;;;;;6071209;23;20401;-84
2022/09/04 02:03:27;;;;;;;0.50;0.40;;;14.20;95.40;;;;;;5957937;24;20024;-85
2022/09/04 02:06:07;;;;;;;0.73;0.50;;;13.90;95.50;;;;;;5981144;24;20482;-85
2022/09/04 02:09:00;;;;;;;1.92;0.40;;;13.90;95.70;;;;;;5981477;24;20031;-85
2022/09/04 02:11:29;;;;;;;0.68;0.43;;;13.80;95.50;;;;;;5980709;24;20063;-85
2022/09/04 02:14:28;;;;;;;0.85;0.30;;;13.40;95.40;;;;;;5981071;24;20444;-85
2022/09/04 02:17:11;;;;;;;0.40;0.40;;;13.80;95.70;;;;;;5957461;24;20028;-85
2022/09/04 02:19:56;;;;;;;0.63;0.40;;;13.80;95.90;;;;;;5957758;24;20096;-85
2022/09/04 02:22:22;;;;;;;0.50;0.40;;;13.80;96.30;;;;;;5980688;24;20016;-85
2022/09/04 02:25:02;;;;;;;0.80;0.40;;;13.70;96.20;;;;;;5981068;24;20020;-85
2022/09/04 02:27:41;;;;;;;0.70;0.50;;;14.20;96.40;;;;;;6003213;23;20137;-85
2022/09/04 02:30:12;;;;;;;1.15;0.30;;;13.70;96.40;;;;;;6094912;23;20524;-85
2022/09/04 02:32:49;;;;;;;0.80;0.50;;;13.70;96.50;;;;;;6070642;23;20353;-85
2022/09/04 02:35:33;;;;;;;0.43;0.40;;;13.70;96.60;;;;;;6070581;23;20434;-85
2022/09/04 02:38:19;;;;;;;1.25;0.52;;;13.70;96.60;;;;;;6095141;23;20472;-85
2022/09/04 02:40:48;;;;;;;;;;;14.50;96.70;;;;;;6203643;23;20023;-86
2022/09/04 02:43:38;;;;;;;1.73;0.50;;;13.60;96.80;;;;;;6215788;23;20311;-86
2022/09/04 02:46:11;;;;;;;0.68;0.50;;;13.60;96.90;;;;;;6189175;23;20020;-86
2022/09/04 02:48:36;;;;;;;1.15;0.68;;;13.60;97.00;;;;;;6215559;23;20091;-85
2022/09/04 02:51:40;;;;;;;0.73;0.45;;;13.50;97.20;;;;;;6189392;23;20079;-85
2022/09/04 02:54:11;;;;;;;0.82;0.47;;;13.60;97.20;;;;;;6189398;23;20056;-85
2022/09/04 02:56:58;;;;;;;1.20;0.40;;;13.50;97.60;;;;;;6215778;23;20019;-86
2022/09/04 02:59:53;;;;;;;0.80;0.52;;;13.60;97.70;;;;;;6188646;23;20025;-85
2022/09/04 03:02:26;;;;;;;0.90;0.40;;;13.40;97.80;;;;;;6189549;23;20466;-85
2022/09/04 03:05:03;;;;;;;0.50;0.40;;;13.40;97.90;;;;;;6189116;23;20077;-85
2022/09/04 03:07:36;;;;;;;1.77;0.50;;;13.30;98.00;;;;;;6164133;23;20021;-85
2022/09/04 03:10:13;;;;;;;1.20;0.50;;;13.30;98.10;;;;;;6188878;23;20068;-85
2022/09/04 03:12:55;;;;;;;0.73;0.43;;;13.30;98.40;;;;;;6188694;23;20059;-85
2022/09/04 03:15:42;;;;;;;0.82;0.47;;;13.30;98.40;;;;;;6215473;23;20359;-85
2022/09/04 03:18:22;;;;;;;1.27;0.55;;;13.20;98.60;;;;;;6188828;23;20466;-85
2022/09/04 03:20:57;;;;;;;0.65;0.35;;;13.20;98.70;;;;;;6188929;23;20016;-86
2022/09/04 03:23:37;;;;;;;1.10;0.50;;;13.20;99.00;;;;;;6215824;23;20028;-85
2022/09/04 03:26:03;;;;;;;0.75;0.70;;;13.20;99.00;;;;;;6163995;23;20054;-85
2022/09/04 03:28:55;;;;;;;0.60;0.50;;;13.20;99.30;;;;;;6215974;23;20062;-85
2022/09/04 03:31:33;;;;;;;0.60;0.32;;;13.20;99.40;;;;;;6215904;23;20024;-85
2022/09/04 03:34:10;;;;;;;2.60;0.40;;;13.10;99.70;;;;;;6215270;23;20021;-86
2022/09/04 03:37:12;;;;;;;0.57;0.40;;;13.10;99.70;;;;;;6188587;23;20017;-85
2022/09/04 03:39:41;;;;;;;0.80;0.50;;;13.10;99.90;;;;;;6163597;23;20027;-85
2022/09/04 03:42:10;;;;;;;0.55;0.40;;;13.10;99.90;;;;;;6215477;23;20017;-85
2022/09/04 03:45:02;;;;;;;1.05;0.40;;;13.00;99.90;;;;;;6188290;23;20067;-85
2022/09/04 03:47:40;;;;;;;0.80;0.40;;;13.00;99.90;;;;;;6188389;23;20020;-85
2022/09/04 03:50:33;;;;;;;0.68;0.40;;;13.00;99.90;;;;;;6188700;23;20075;-85
2022/09/04 03:53:17;;;;;;;0.63;0.40;;;13.00;99.90;;;;;;6188581;23;20096;-86
2022/09/04 03:56:02;;;;;;;1.08;0.50;;;13.00;99.90;;;;;;6215451;23;20017;-84
2022/09/04 03:58:48;;;;;;;0.70;0.40;;;12.80;99.90;;;;;;6189108;23;20020;-85
2022/09/04 04:01:33;;;;;;;;;;;12.90;99.90;;;;;;6189252;23;20024;-85
2022/09/04 04:04:15;;;;;;;0.68;0.45;;;12.90;99.90;;;;;;6213400;23;20258;-85
2022/09/04 04:07:07;;;;;;;0.82;0.50;;;12.90;99.90;;;;;;6215028;23;20070;-85
2022/09/04 04:09:58;;;;;;;0.73;0.45;;;12.90;99.90;;;;;;6069715;23;20453;-85
2022/09/04 04:12:50;;;;;;;0.85;0.50;;;12.80;99.90;;;;;;6093865;23;20022;-85
2022/09/04 04:15:31;;;;;;;0.80;0.60;;;13.30;99.90;;;;;;6088236;23;20025;-86
2022/09/04 04:18:03;;;;;;;1.00;0.40;;;12.80;99.90;;;;;;6069292;23;20026;-85
2022/09/04 04:21:00;;;;;;;0.60;0.50;;;12.80;99.90;;;;;;6070298;23;20025;-85
2022/09/04 04:23:35;;;;;;;0.93;0.50;;;12.70;99.90;;;;;;6093781;23;20023;-85
2022/09/04 04:26:21;;;;;;;1.58;0.52;;;12.70;99.90;;;;;;6069323;23;20048;-85
2022/09/04 04:29:05;;;;;;;0.82;0.35;;;12.60;99.90;;;;;;6069739;23;20025;-85
2022/09/04 04:31:37;;;;;;;0.47;0.40;;;12.60;99.90;;;;;;6069693;23;20022;-85
2022/09/04 04:34:24;;;;;;;1.92;0.47;;;12.70;99.90;;;;;;6069503;23;20025;-85
2022/09/04 04:37:07;;;;;;;3.40;0.30;;;12.50;99.90;;;;;;6093796;23;20018;-85
2022/09/04 04:39:56;;;;;;;0.63;0.50;;;12.50;99.90;;;;;;6093106;23;20373;-85
2022/09/04 04:42:46;;;;;;;1.17;0.55;;;12.50;99.90;;;;;;6093604;23;20018;-85
2022/09/04 04:45:50;;;;;;;0.52;0.45;;;12.50;99.90;;;;;;6072446;23;20373;-85
2022/09/04 04:48:18;;;;;;;2.47;0.43;;;12.50;99.90;;;;;;6069091;23;20117;-86
2022/09/04 04:51:08;;;;;;;0.80;0.60;;;12.50;99.90;;;;;;6093179;23;20076;-86
2022/09/04 04:54:12;;;;;;;0.98;0.50;;;12.50;99.90;;;;;;6069404;23;20022;-86
2022/09/04 04:56:44;;;;;;;1.55;0.60;;;12.50;99.90;;;;;;6093473;23;20022;-85
2022/09/04 04:59:33;;;;;;;1.05;0.60;;;12.70;99.90;;;;;;6092241;23;20022;-85
2022/09/04 05:02:15;;;;;;;2.15;1.30;;;12.50;99.90;;;;;;6069380;23;20022;-85
2022/09/04 05:05:03;;;;;;;2.38;0.85;;;12.40;99.90;;;;;;6093473;23;20057;-86
2022/09/04 05:07:52;;;;;;;0.82;0.50;;;13.10;99.90;;;;;;6093550;23;20022;-86
2022/09/04 05:10:28;;;;;;;1.17;0.60;;;12.40;99.90;;;;;;6069276;23;20070;-85
2022/09/04 05:13:19;;;;;;;1.00;0.55;;;12.40;99.90;;;;;;6069311;23;20098;-86
2022/09/04 05:16:03;;;;;;;0.63;0.40;;;12.40;99.90;;;;;;5979302;24;20099;-86
2022/09/04 05:18:58;;;;;;;0.60;0.50;;;12.40;99.90;;;;;;5979668;24;20317;-86
2022/09/04 05:22:04;;;;;;;0.82;0.60;;;12.80;99.90;;;;;;5979763;24;20174;-85
2022/09/04 05:24:47;;;;;;;0.95;0.60;;;12.40;99.90;;;;;;6011316;23;20018;-86
2022/09/04 05:27:15;;;;;;;0.73;0.60;;;12.50;99.90;;;;;;6095431;23;20054;-86
2022/09/04 05:30:07;;;;;;;0.70;0.40;;;12.50;99.90;;;;;;6071964;23;20030;-86
2022/09/04 05:32:45;;;;;;;1.95;0.50;;;12.50;99.90;;;;;;6071411;23;20074;-85
2022/09/04 05:35:16;;;;;;;0.93;0.50;;;12.60;99.90;;;;;;6095454;23;20022;-85
2022/09/04 05:38:04;;;;;;;0.60;0.50;;;12.60;99.90;;;;;;6071147;23;20022;-86
2022/09/04 05:41:05;;;;;;;0.70;0.50;;;12.60;99.90;;;;;;6070375;23;20436;-85
2022/09/04 05:43:56;;;;;;;1.10;0.50;;;12.70;99.90;;;;;;6070629;23;20123;-85
2022/09/04 05:47:02;;;;;;;0.60;0.40;;;12.80;99.90;;;;;;6070383;23;20036;-85
2022/09/04 05:50:09;;;;;;;0.70;0.67;;;12.80;99.90;;;;;;6071204;23;20121;-86
2022/09/04 05:52:37;;;;;;;;;;;12.90;99.90;;;;;;6138200;23;20301;-86
2022/09/04 05:55:40;;;;;;;0.90;0.47;;;13.00;99.90;;;;;;6216496;23;19920;-85
2022/09/04 05:58:33;;;;;;;0.47;0.40;;;13.10;99.90;;;;;;6189874;23;20017;-85
2022/09/04 06:01:34;;;;;;;0.73;0.30;;;13.20;99.90;;;;;;6216856;23;20017;-85
2022/09/04 06:04:31;;;;;;;1.10;0.50;;;13.30;99.90;;;;;;6216097;23;20024;-85
2022/09/04 06:07:13;;;;;;;0.80;0.50;;;13.20;99.90;;;;;;6216717;23;20020;-85
2022/09/04 06:10:08;;;;;;;0.40;0.35;;;13.40;99.90;;;;;;6189440;23;20020;-85
2022/09/04 06:13:12;;;;;;;0.50;0.40;;;13.50;99.90;;;;;;6189579;23;20782;-85
2022/09/04 06:16:14;;;;;;;1.55;0.80;;;13.70;99.90;;;;;;6164786;23;20020;-85
2022/09/04 06:18:55;;;;;;;0.98;0.50;;;13.80;99.90;;;;;;6189157;23;20032;-86
2022/09/04 06:21:47;;;;;;;0.70;0.40;;;14.00;99.90;;;;;;6189244;23;20451;-85
2022/09/04 06:24:46;;;;;;;0.88;0.40;;;14.10;99.90;;;;;;6189260;23;20021;-85
2022/09/04 06:27:31;;;;;;;0.82;0.40;;;14.10;99.90;;;;;;6216414;23;20017;-85
2022/09/04 06:30:09;;;;;;;0.40;0.40;;;14.10;99.90;;;;;;6189868;23;20017;-86
2022/09/04 06:33:12;;;;;;;1.05;0.57;;;14.20;99.90;;;;;;6189054;23;20021;-85
2022/09/04 06:35:39;;;;;;;0.70;0.40;;;14.20;99.90;;;;;;6189128;23;20017;-85
2022/09/04 06:38:24;;;;;;;0.60;0.43;;;14.30;99.90;;;;;;6216400;23;20312;-85
2022/09/04 06:41:10;;;;;;;1.13;0.50;;;14.30;99.90;;;;;;6188955;23;20031;-85
2022/09/04 06:43:50;;;;;;;1.20;0.40;;;14.40;99.90;;;;;;6188861;23;20040;-85
2022/09/04 06:46:36;;;;;;;0.52;0.40;;;14.50;99.90;;;;;;6189280;23;20451;-85
2022/09/04 06:49:35;;;;;;;2.05;0.57;;;14.60;99.90;;;;;;6197675;23;20451;-90
2022/09/04 06:52:21;;;;;;;0.60;0.40;;;14.70;99.90;;;;;;6216631;23;20044;-83
2022/09/04 06:54:49;;;;;;;0.45;0.40;;;14.90;99.90;;;;;;6215531;23;20020;-85
2022/09/04 06:57:50;;;;;;;0.73;0.40;;;15.50;99.90;;;;;;6189708;23;20020;-84
2022/09/04 07:00:19;;;;;;;0.85;0.40;;;15.10;99.90;;;;;;6189918;23;20099;-85
2022/09/04 07:02:45;;;;;;;1.75;0.50;;;15.30;99.90;;;;;;6216115;23;20470;-86
2022/09/04 07:05:43;;;;;;;0.68;0.40;;;15.40;99.90;;;;;;6188954;23;20447;-86
2022/09/04 07:08:27;;;;;;;1.48;0.40;;;15.60;99.90;;;;;;6094892;23;20090;-85
2022/09/04 07:11:13;;;;;;;0.63;0.40;;;15.80;99.90;;;;;;6161517;23;20046;-85
2022/09/04 07:14:15;;;;;;;0.88;0.50;;;15.90;99.90;;;;;;6189085;23;20021;-85
2022/09/04 07:17:10;;;;;;;0.50;0.40;;;16.10;99.90;;;;;;6189032;23;20292;-86
2022/09/04 07:19:44;;;;;;;2.15;0.47;;;16.40;99.90;;;;;;6189104;23;20029;-85
2022/09/04 07:22:25;;;;;;;1.20;0.63;;;16.50;99.90;;;;;;6189245;23;20410;-85
2022/09/04 07:25:28;;;;;;;0.70;0.40;;;16.70;99.90;;;;;;6189051;23;20029;-84
2022/09/04 07:28:12;;;;;;;0.57;0.40;;;16.90;99.70;;;;;;6189522;23;20017;-86
2022/09/04 07:31:19;;;;;;;0.80;0.43;;;17.10;99.10;;;;;;6215796;23;20387;-88
2022/09/04 07:33:52;;;;;;;0.45;0.43;;;17.30;98.60;;;;;;6065568;23;20094;-86
2022/09/04 07:36:37;;;;;;;0.88;0.50;;;17.40;98.00;;;;;;6041536;23;20023;-85
2022/09/04 07:45:54;;;;;;;1.05;0.47;;;17.90;97.80;;;;;;6214790;23;20027;-84
2022/09/04 07:48:36;;;;;;;0.73;0.52;;;18.10;97.50;;;;;;6189080;23;20431;-83
2022/09/04 07:51:09;;;;;;;3.63;0.70;;;18.20;96.80;;;;;;6163727;23;20023;-86
2022/09/04 07:53:54;;;;;;;1.67;0.70;;;18.30;96.70;;;;;;6163694;23;20016;-84
2022/09/04 07:57:00;;;;;;;2.15;0.60;;;18.50;97.00;;;;;;6188661;23;20096;-85
2022/09/04 08:00:03;;;;;;;2.85;0.63;;;18.70;97.00;;;;;;6216030;23;20147;-82
2022/09/04 08:03:20;;;;;;;2.58;0.57;;;18.90;96.80;;;;;;6215316;23;20091;-83
2022/09/04 08:06:08;;;;;;;0.55;0.40;;;19.00;96.20;;;;;;6041071;23;20070;-83
2022/09/04 08:08:45;;;;;;;3.40;0.75;;;19.20;96.10;;;;;;6040783;23;20119;-83
2022/09/04 08:11:57;;;;;;;0.65;0.50;;;19.40;95.60;;;;;;6065115;23;20102;-83
2022/09/04 08:14:57;;;;;;;0.80;0.50;;;19.50;95.80;;;;;;5956749;24;20039;-83
2022/09/04 08:17:44;;;;;;;1.10;0.50;;;19.70;95.30;;;;;;5954169;24;20028;-82
2022/09/04 08:20:32;;;;;;;0.70;0.40;;;19.90;95.20;;;;;;5956555;24;20020;-83
2022/09/04 08:23:24;;;;;;;0.45;0.40;;;20.00;95.20;;;;;;5979914;24;20020;-82
2022/09/04 08:30:03;;;;;;;0.82;0.60;;;20.40;94.50;;;;;;5980436;24;20068;-84
2022/09/04 08:32:48;;;;;;;0.77;0.40;;;20.50;94.10;;;;;;5924323;24;20035;-83
2022/09/04 08:35:35;;;;;;;1.20;0.55;;;20.60;94.40;;;;;;5901367;24;20021;-85
2022/09/04 08:40:53;;;;;;;0.60;0.40;;;20.80;94.00;;;;;;6198231;22;20324;-86
2022/09/04 08:43:43;;;;;;;2.35;0.70;;;20.90;94.10;;;;;;6187518;23;20024;-83
2022/09/04 08:46:26;;;;;;;1.20;0.52;;;21.10;93.20;;;;;;6188209;23;20020;-83
2022/09/04 08:48:55;;;;;;;0.85;0.47;;;21.10;93.00;;;;;;6215188;23;20027;-83
2022/09/04 08:51:48;;;;;;;1.88;0.40;;;20.70;93.70;;;;;;6188443;23;20024;-83
2022/09/04 08:54:49;;;;;;;1.30;0.45;;;21.50;93.10;;;;;;6188268;23;20067;-84
2022/09/04 08:57:34;;;;;;;3.63;0.68;;;21.70;93.30;;;;;;6214477;23;20020;-83
2022/09/04 09:00:19;;;;;;;0.93;0.60;;;21.80;92.70;;;;;;6214934;23;20016;-83
2022/09/04 09:03:16;;;;;;;0.70;0.52;;;21.90;92.30;;;;;;6187954;23;20023;-84
2022/09/04 09:05:52;;;;;;;1.23;0.45;;;22.10;91.80;;;;;;6214994;23;20435;-83
2022/09/04 09:08:47;;;;;;;1.65;0.60;;;22.30;92.20;;;;;;6190430;23;20024;-92
2022/09/04 09:13:45;;;;;;;0.90;0.40;;;22.60;91.40;;;;;;5141985;27;20400;-85
2022/09/04 09:16:35;;;;;;;1.05;0.50;;;22.70;91.20;;;;;;5087387;28;20060;-86
2022/09/04 09:19:18;;;;;;;0.50;0.43;;;22.80;92.10;;;;;;5070797;28;20052;-85
2022/09/04 09:22:28;;;;;;;0.80;0.40;;;23.00;91.60;;;;;;5065186;28;20032;-85
2022/09/04 09:25:10;;;;;;;2.28;0.50;;;23.10;91.20;;;;;;5028169;28;20052;-86
2022/09/04 09:28:13;;;;;;;0.80;0.40;;;23.20;91.50;;;;;;5025173;28;20049;-86
2022/09/04 09:31:20;;;;;;;1.20;0.60;;;23.20;90.70;;;;;;5036543;28;20049;-86
2022/09/04 09:34:24;;;;;;;0.85;0.40;;;23.30;90.40;;;;;;5016573;28;20084;-86
2022/09/04 09:37:12;;;;;;;0.93;0.43;;;23.50;90.50;;;;;;5039158;28;20127;-85
2022/09/04 09:46:08;;;;;;;1.38;0.52;;;23.90;88.40;;;;;;5054170;28;20049;-84
2022/09/04 09:48:55;;;;;;;0.73;0.40;;;24.10;90.00;;;;;;5049372;28;20140;-83
2022/09/04 09:51:40;;;;;;;0.80;0.45;;;24.10;88.90;;;;;;5040999;28;20152;-84
2022/09/04 09:54:36;;;;;;;1.60;0.70;;;24.30;87.00;;;;;;5062371;28;20501;-85
2022/09/04 09:57:59;;;;;;;0.93;0.40;;;24.30;87.10;;;;;;5031903;28;20045;-84
2022/09/04 10:00:45;;;;;;;0.65;0.40;;;24.50;85.20;;;;;;4951885;28;20050;-85
2022/09/04 10:03:11;;;;;;;1.48;0.40;;;24.60;86.10;;;;;;4949282;28;20097;-86
2022/09/04 10:06:15;;;;;;;1.10;0.60;;;24.70;87.00;;;;;;4949754;28;20043;-86
2022/09/04 10:09:01;;;;;;;1.00;0.47;;;24.80;85.80;;;;;;4952731;28;20470;-85
2022/09/04 10:11:55;;;;;;;1.95;0.52;;;24.90;84.50;;;;;;4895463;29;20064;-84
2022/09/04 10:14:48;;;;;;;1.70;0.47;;;25.00;85.50;;;;;;4841194;29;20158;-84
2022/09/04 10:17:34;;;;;;;0.70;0.50;;;25.10;83.50;;;;;;4847168;29;20057;-85
2022/09/04 10:20:15;;;;;;;1.42;0.60;;;25.20;82.80;;;;;;4859469;29;20057;-86
2022/09/04 10:23:18;;;;;;;1.15;0.55;;;25.30;82.70;;;;;;4867341;29;20177;-85
2022/09/04 10:25:59;;;;;;;0.82;0.50;;;25.50;82.40;;;;;;4860195;29;20046;-86
2022/09/04 10:28:39;;;;;;;0.45;0.28;;;25.50;83.70;;;;;;4860305;29;20088;-85
2022/09/04 10:31:26;;;;;;;1.58;0.32;;;25.70;83.70;;;;;;4870451;29;20068;-85
2022/09/04 10:34:16;;;;;;;1.00;0.40;;;25.90;81.50;;;;;;4902479;29;20049;-86
2022/09/04 10:37:15;;;;;;;0.70;0.50;;;26.00;81.10;;;;;;4887039;29;20406;-83
2022/09/04 10:43:32;;;;;;;0.68;0.30;;;26.10;81.00;;;;;;4902233;29;20127;-85
2022/09/04 10:46:16;;;;;;;2.83;0.55;;;26.30;79.00;;;;;;4899376;29;20080;-84
2022/09/04 10:49:03;;;;;;;0.82;0.30;;;26.30;79.70;;;;;;4907536;29;20444;-84
2022/09/04 10:51:38;;;;;;;0.98;0.43;;;26.50;80.20;;;;;;4997551;28;20054;-84
2022/09/04 10:54:32;;;;;;;2.20;0.40;;;26.50;79.50;;;;;;5052587;28;20059;-85
2022/09/04 10:57:27;;;;;;;1.25;0.40;;;26.70;79.20;;;;;;5025475;28;20066;-86
2022/09/04 11:00:07;;;;;;;2.55;0.47;;;26.70;79.80;;;;;;5039374;28;20083;-86
2022/09/04 11:03:02;;;;;;;1.15;0.57;;;26.70;78.90;;;;;;5052421;28;20052;-86
2022/09/04 11:05:47;;;;;;;0.63;0.38;;;26.80;78.10;;;;;;5047566;28;20055;-85
2022/09/04 11:08:35;;;;;;;0.73;0.40;;;26.90;78.80;;;;;;5035337;28;20049;-84
2022/09/04 11:11:09;;;;;;;0.52;0.40;;;26.90;77.80;;;;;;5032716;28;20098;-85
2022/09/04 11:13:59;;;;;;;0.40;0.40;;;27.00;76.60;;;;;;5048040;28;20085;-84
2022/09/04 11:16:28;;;;;;;0.93;0.60;;;27.00;77.80;;;;;;5046112;28;20392;-84
2022/09/04 11:18:59;;;;;;;1.08;0.50;;;27.00;77.20;;;;;;5051962;28;20106;-84
2022/09/04 11:22:00;;;;;;;0.43;0.30;;;27.20;77.00;;;;;;5052423;28;20037;-86
2022/09/04 11:25:17;;;;;;;2.28;0.60;;;27.30;77.70;;;;;;5027014;28;20057;-84
2022/09/04 11:28:13;;;;;;;0.52;0.40;;;27.50;76.00;;;;;;5021297;28;20045;-85
2022/09/04 11:30:52;;;;;;;0.65;0.45;;;27.50;76.20;;;;;;5034220;28;20051;-86
2022/09/04 11:33:49;;;;;;;0.68;0.30;;;27.60;76.30;;;;;;5044967;28;20405;-84
2022/09/04 11:36:35;;;;;;;0.47;0.30;;;27.70;75.20;;;;;;5048282;28;20053;-84
2022/09/04 11:39:24;;;;;;;0.50;0.40;;;27.60;74.30;;;;;;5030121;28;20045;-84
2022/09/04 11:42:23;;;;;;;0.63;0.40;;;27.50;74.10;;;;;;4971315;28;20134;-82
2022/09/04 11:45:27;;;;;;;0.40;0.30;;;27.60;75.80;;;;;;4954235;28;20436;-85
2022/09/04 11:48:26;;;;;;;0.88;0.50;;;27.70;73.90;;;;;;4971625;28;20147;-84
2022/09/04 11:51:39;;;;;;;2.60;1.38;;;27.60;73.30;;;;;;4955253;28;20110;-85
2022/09/04 11:56:57;;;;;;;0.35;0.30;;;27.80;74.50;;;;;;5076673;22;20064;-86
2022/09/04 11:59:41;;;;;;;1.92;0.50;;;27.90;74.80;;;;;;5054323;28;20051;-91
2022/09/04 12:02:52;;;;;;;0.70;0.40;;;28.00;73.50;;;;;;5054662;28;20047;-85
2022/09/04 12:08:11;;;;;;;1.00;0.60;;;28.00;74.20;;;;;;5329466;22;20130;-89
2022/09/04 12:11:30;;;;;;;;;;;;;;;;;;;;;
2022/09/04 12:14:35;;;;;;;0.73;0.40;;;28.30;73.70;;;;;;5027142;28;20086;-89
2022/09/04 12:17:39;;;;;;;1.00;0.50;;;28.40;73.80;;;;;;5036270;28;20045;-88
2022/09/04 12:24:04;;;;;;;1.20;0.55;;;28.80;75.20;;;;;;5163679;22;20051;-89
2022/09/04 12:27:06;;;;;;;0.80;0.50;;;28.70;72.70;;;;;;5093786;28;20044;-90
2022/09/04 12:29:49;;;;;;;0.45;0.40;;;28.80;73.30;;;;;;5094602;28;20049;-88
2022/09/04 12:32:33;;;;;;;0.52;0.40;;;29.00;73.50;;;;;;5076073;28;20075;-91
2022/09/04 12:35:41;;;;;;;0.47;0.30;;;29.10;73.30;;;;;;5075470;28;20109;-91
2022/09/04 12:38:33;;;;;;;0.90;0.50;;;29.10;70.50;;;;;;5080476;28;20126;-89
2022/09/04 12:41:27;;;;;;;1.20;0.40;;;29.00;71.40;;;;;;5064836;23;20036;-93
2022/09/04 12:44:10;;;;;;;1.08;0.40;;;28.90;71.80;;;;;;5043195;23;20551;-93
2022/09/04 12:46:51;;;;;;;0.40;0.30;;;28.90;73.00;;;;;;5023360;28;20045;-85
2022/09/04 12:49:40;;;;;;;1.05;0.47;;;29.00;72.20;;;;;;5027687;28;20081;-88
2022/09/04 12:52:16;;;;;;;0.50;0.40;;;28.90;70.20;;;;;;5041012;28;20053;-89
2022/09/04 12:55:02;;;;;;;1.02;0.40;;;29.00;70.60;;;;;;5035076;28;20052;-87
2022/09/04 13:02:00;;;;;;;1.20;0.47;;;29.00;70.20;;;;;;5019260;28;20087;-89
2022/09/04 13:05:17;;;;;;;1.60;0.60;;;29.00;70.70;;;;;;4951115;28;20505;-91
2022/09/04 13:07:58;;;;;;;0.57;0.40;;;29.20;72.10;;;;;;4984366;28;20514;-88
2022/09/04 13:18:09;;;;;;;0.82;0.40;;;29.60;70.70;;;;;;4995434;28;20061;-82
2022/09/04 13:20:46;;;;;;;0.60;0.35;;;29.80;70.50;;;;;;4990281;28;20062;-88
2022/09/04 13:23:34;;;;;;;1.40;0.65;;;29.80;70.00;;;;;;4995343;28;20077;-84
2022/09/04 13:26:36;;;;;;;0.93;0.50;;;29.80;69.80;;;;;;4990146;28;20061;-84
2022/09/04 13:29:07;;;;;;;1.45;0.60;;;29.90;69.80;;;;;;4995065;28;20050;-84
2022/09/04 13:32:03;;;;;;;0.95;0.50;;;29.80;68.40;;;;;;4992953;28;20597;-89
2022/09/04 13:35:08;;;;;;;0.80;0.47;;;29.80;68.20;;;;;;4999737;28;20042;-86
2022/09/04 13:37:53;;;;;;;2.33;0.50;;;29.90;68.10;;;;;;5028186;28;20504;-84
2022/09/04 13:40:59;;;;;;;2.03;0.60;;;29.90;68.90;;;;;;5029343;28;20493;-87
2022/09/04 13:43:47;;;;;;;1.08;0.45;;;30.10;69.30;;;;;;5013735;28;20188;-86
2022/09/04 13:46:29;;;;;;;1.55;0.57;;;30.10;68.50;;;;;;5037185;28;20057;-85
2022/09/04 13:49:02;;;;;;;0.77;0.45;;;30.00;68.20;;;;;;5038257;28;20041;-88
2022/09/04 13:51:33;;;;;;;1.60;0.30;;;29.90;67.20;;;;;;5032336;28;20049;-86
2022/09/04 13:54:24;;;;;;;0.95;0.68;;;29.90;68.80;;;;;;5014015;28;20037;-83
2022/09/04 13:57:07;;;;;;;1.08;0.40;;;29.90;66.70;;;;;;5032297;28;20037;-83
2022/09/04 13:59:33;;;;;;;0.80;0.50;;;29.70;67.40;;;;;;5034283;28;20046;-84
2022/09/04 14:02:06;;;;;;;0.80;0.43;;;29.60;69.10;;;;;;5035728;28;20093;-83
2022/09/04 14:04:39;;;;;;;0.70;0.50;;;29.60;70.10;;;;;;5040270;28;20044;-82
2022/09/04 14:07:17;;;;;;;1.80;0.63;;;29.80;70.10;;;;;;5028947;28;20045;-84
2022/09/04 14:09:47;;;;;;;1.52;0.50;;;29.80;69.50;;;;;;5034794;28;20590;-86
2022/09/04 14:12:17;;;;;;;1.35;0.50;;;29.90;68.10;;;;;;5031797;28;20058;-83
2022/09/04 14:15:32;;;;;;;0.50;0.40;;;29.80;68.10;;;;;;5025201;28;20041;-87
2022/09/04 14:18:17;;;;;;;3.22;0.60;;;29.60;67.70;;;;;;4971220;28;20090;-84
2022/09/04 14:20:58;;;;;;;0.90;0.50;;;29.60;66.80;;;;;;4973872;28;20057;-84
2022/09/04 14:23:39;;;;;;;2.03;0.70;;;29.40;67.00;;;;;;4957954;28;20074;-82
2022/09/04 14:26:23;;;;;;;2.47;0.70;;;29.30;67.00;;;;;;4975290;28;20470;-84
2022/09/04 14:29:09;;;;;;;1.85;0.65;;;29.20;67.60;;;;;;4939756;28;20069;-83
2022/09/04 14:31:45;;;;;;;3.53;0.50;;;29.20;67.70;;;;;;4973810;28;20566;-86
2022/09/04 14:34:24;;;;;;;0.80;0.40;;;29.20;68.40;;;;;;4973304;28;20090;-84
2022/09/04 14:37:06;;;;;;;1.25;0.50;;;29.20;68.30;;;;;;4973331;28;20102;-83
2022/09/04 14:39:48;;;;;;;0.75;0.57;;;29.20;68.70;;;;;;4988539;28;20053;-82
2022/09/04 14:42:27;;;;;;;1.00;0.52;;;29.10;68.10;;;;;;4966234;28;20097;-87
2022/09/04 14:45:14;;;;;;;0.70;0.40;;;29.00;67.70;;;;;;4956253;28;20054;-85
2022/09/04 14:47:54;;;;;;;1.00;0.52;;;29.00;69.40;;;;;;4973734;28;20055;-86
2022/09/04 14:50:27;;;;;;;1.38;0.50;;;28.90;69.10;;;;;;4973259;28;20106;-84
2022/09/04 14:53:06;;;;;;;1.23;0.70;;;28.90;67.70;;;;;;4986509;28;20119;-85
2022/09/04 14:55:34;;;;;;;1.08;0.50;;;28.90;69.60;;;;;;5012537;28;20116;-84
2022/09/04 14:58:23;;;;;;;0.95;0.50;;;29.00;68.20;;;;;;5033991;28;20037;-84
2022/09/04 15:00:56;;;;;;;1.05;0.50;;;29.00;69.10;;;;;;5027248;28;20037;-85
2022/09/04 15:03:32;;;;;;;1.08;0.60;;;28.90;69.40;;;;;;5033938;28;20041;-85
2022/09/04 15:06:14;;;;;;;2.03;0.50;;;28.90;68.90;;;;;;5034417;28;20119;-84
2022/09/04 15:08:43;;;;;;;0.82;0.40;;;28.70;69.30;;;;;;5033617;28;20046;-87
2022/09/04 15:11:25;;;;;;;0.90;0.50;;;28.70;69.40;;;;;;5016512;28;20041;-84
2022/09/04 15:13:53;;;;;;;0.57;0.50;;;28.60;69.40;;;;;;5015810;28;20460;-83